createdAt,value
2018-05-18T00:00:29.093Z,0
2018-05-18T00:01:34.532Z,0
2018-05-18T00:02:39.402Z,0
2018-05-18T00:03:45.136Z,0
2018-05-18T00:04:50.571Z,0
2018-05-18T00:05:55.728Z,0
2018-05-18T00:07:01.572Z,0
2018-05-18T00:08:06.152Z,0
2018-05-18T00:09:11.029Z,0
2018-05-18T00:10:16.588Z,0
2018-05-18T00:11:22.039Z,0
2018-05-18T00:12:27.533Z,0
2018-05-18T00:13:32.397Z,0
2018-05-18T00:14:36.971Z,0
2018-05-18T00:15:42.581Z,0
2018-05-18T00:16:47.461Z,0
2018-05-18T00:17:52.046Z,0
2018-05-18T00:18:57.663Z,0
2018-05-18T00:20:02.266Z,0
2018-05-18T00:21:07.424Z,0
2018-05-18T00:22:13.105Z,0
2018-05-18T00:23:17.983Z,0
2018-05-18T00:24:23.122Z,0
2018-05-18T00:25:28.744Z,0
2018-05-18T00:26:33.935Z,0
2018-05-18T00:27:39.669Z,0
2018-05-18T00:28:44.536Z,0
2018-05-18T00:29:49.971Z,0
2018-05-18T00:30:55.566Z,0
2018-05-18T00:32:00.996Z,0
2018-05-18T00:33:05.573Z,0
2018-05-18T00:34:11.283Z,0
2018-05-18T00:35:16.436Z,0
2018-05-18T00:36:21.594Z,0
2018-05-18T00:37:27.480Z,0
2018-05-18T00:38:32.915Z,0
2018-05-18T00:39:38.744Z,0
2018-05-18T00:40:43.904Z,0
2018-05-18T00:41:49.347Z,0
2018-05-18T00:42:54.840Z,0
2018-05-18T00:44:00.335Z,0
2018-05-18T00:45:05.486Z,0
2018-05-18T00:46:10.377Z,0
2018-05-18T00:47:15.259Z,0
2018-05-18T00:48:20.421Z,0
2018-05-18T00:49:25.917Z,0
2018-05-18T00:50:31.404Z,0
2018-05-18T00:51:37.311Z,0
2018-05-18T00:52:42.183Z,0
2018-05-18T00:53:47.604Z,0
2018-05-18T00:54:53.594Z,0
2018-05-18T00:55:58.461Z,0
2018-05-18T00:57:03.345Z,0
2018-05-18T00:58:07.920Z,0
2018-05-18T00:59:13.351Z,0
2018-05-18T01:00:18.503Z,0
2018-05-18T01:01:24.291Z,0
2018-05-18T01:02:29.445Z,0
2018-05-18T01:03:34.627Z,0
2018-05-18T01:04:39.200Z,0
2018-05-18T01:05:44.357Z,0
2018-05-18T01:06:50.302Z,0
2018-05-18T01:07:55.479Z,0
2018-05-18T01:09:00.929Z,0
2018-05-18T01:10:06.156Z,0
2018-05-18T01:11:11.299Z,0
2018-05-18T01:12:16.729Z,0
2018-05-18T01:13:22.221Z,0
2018-05-18T01:14:27.385Z,0
2018-05-18T01:15:32.849Z,0
2018-05-18T01:16:38.280Z,0
2018-05-18T01:17:43.478Z,0
2018-05-18T01:18:48.981Z,0
2018-05-18T01:19:54.128Z,0
2018-05-18T01:20:59.579Z,0
2018-05-18T01:22:05.000Z,0
2018-05-18T01:23:10.442Z,0
2018-05-18T01:24:15.311Z,0
2018-05-18T01:25:20.705Z,0
2018-05-18T01:26:25.577Z,0
2018-05-18T01:27:31.512Z,0
2018-05-18T01:28:36.651Z,0
2018-05-18T01:29:41.796Z,0
2018-05-18T01:30:47.590Z,0
2018-05-18T01:31:52.751Z,0
2018-05-18T01:32:57.913Z,0
2018-05-18T01:34:03.131Z,0
2018-05-18T01:35:08.008Z,0
2018-05-18T01:36:12.887Z,0
2018-05-18T01:37:18.351Z,0
2018-05-18T01:38:23.501Z,0
2018-05-18T01:39:29.336Z,0
2018-05-18T01:40:34.207Z,0
2018-05-18T01:41:39.650Z,0
2018-05-18T01:42:45.386Z,0
2018-05-18T01:43:50.269Z,0
2018-05-18T01:44:55.423Z,0
2018-05-18T01:46:01.120Z,0
2018-05-18T01:47:06.021Z,0
2018-05-18T01:48:10.879Z,0
2018-05-18T01:49:16.779Z,0
2018-05-18T01:50:21.936Z,0
2018-05-18T01:51:27.277Z,0
2018-05-18T01:52:32.432Z,0
2018-05-18T01:53:37.594Z,0
2018-05-18T01:54:43.428Z,0
2018-05-18T01:55:48.898Z,0
2018-05-18T01:56:54.342Z,0
2018-05-18T01:58:00.176Z,0
2018-05-18T01:59:05.615Z,0
2018-05-18T02:00:10.519Z,0
2018-05-18T02:01:16.285Z,0
2018-05-18T02:02:21.702Z,0
2018-05-18T02:03:27.357Z,0
2018-05-18T02:04:32.805Z,0
2018-05-18T02:05:38.253Z,0
2018-05-18T02:06:43.714Z,0
2018-05-18T02:07:48.608Z,0
2018-05-18T02:08:54.045Z,0
2018-05-18T02:09:59.201Z,0
2018-05-18T02:11:04.066Z,0
2018-05-18T02:12:09.222Z,0
2018-05-18T02:13:15.003Z,0
2018-05-18T02:14:19.600Z,0
2018-05-18T02:15:40.051Z,0
2018-05-18T02:16:44.631Z,0
2018-05-18T02:17:49.512Z,0
2018-05-18T02:18:55.060Z,0
2018-05-18T02:20:00.506Z,0
2018-05-18T02:21:05.392Z,0
2018-05-18T02:22:10.673Z,0
2018-05-18T02:23:15.836Z,0
2018-05-18T02:24:21.263Z,0
2018-05-18T02:25:41.645Z,0
2018-05-18T02:26:46.516Z,0
2018-05-18T02:27:52.071Z,0
2018-05-18T02:28:57.503Z,0
2018-05-18T02:30:02.369Z,0
2018-05-18T02:31:07.218Z,0
2018-05-18T02:32:12.649Z,0
2018-05-18T02:33:18.098Z,0
2018-05-18T02:34:23.576Z,0
2018-05-18T02:35:29.105Z,0
2018-05-18T02:36:34.666Z,0
2018-05-18T02:37:39.255Z,0
2018-05-18T02:38:44.690Z,0
2018-05-18T02:39:50.601Z,0
2018-05-18T02:40:55.754Z,0
2018-05-18T02:42:00.626Z,0
2018-05-18T02:43:05.883Z,0
2018-05-18T02:44:10.761Z,0
2018-05-18T02:45:16.223Z,0
2018-05-18T02:46:21.729Z,0
2018-05-18T02:47:27.178Z,0
2018-05-18T02:48:32.838Z,0
2018-05-18T02:49:38.268Z,0
2018-05-18T02:50:43.703Z,0
2018-05-18T02:51:49.550Z,0
2018-05-18T02:52:54.982Z,0
2018-05-18T02:53:59.847Z,0
2018-05-18T02:55:05.487Z,0
2018-05-18T02:56:10.339Z,0
2018-05-18T02:57:15.495Z,0
2018-05-18T02:58:20.363Z,0
2018-05-18T02:59:25.344Z,0
2018-05-18T03:00:30.515Z,0
2018-05-18T03:01:35.699Z,0
2018-05-18T03:02:40.578Z,0
2018-05-18T03:03:46.415Z,0
2018-05-18T03:04:51.856Z,0
2018-05-18T03:05:56.741Z,0
2018-05-18T03:07:02.318Z,0
2018-05-18T03:08:07.209Z,0
2018-05-18T03:09:11.840Z,0
2018-05-18T03:10:17.570Z,0
2018-05-18T03:11:22.475Z,0
2018-05-18T03:12:28.455Z,0
2018-05-18T03:13:33.666Z,0
2018-05-18T03:14:39.125Z,0
2018-05-18T03:15:44.981Z,0
2018-05-18T03:16:50.161Z,0
2018-05-18T03:17:55.319Z,0
2018-05-18T03:19:00.995Z,0
2018-05-18T03:20:06.145Z,0
2018-05-18T03:21:11.570Z,0
2018-05-18T03:22:17.403Z,0
2018-05-18T03:23:22.570Z,0
2018-05-18T03:24:27.901Z,0
2018-05-18T03:25:33.078Z,0
2018-05-18T03:26:38.249Z,0
2018-05-18T03:27:43.991Z,0
2018-05-18T03:28:49.433Z,0
2018-05-18T03:29:54.888Z,0
2018-05-18T03:31:00.774Z,0
2018-05-18T03:32:05.630Z,0
2018-05-18T03:33:11.075Z,0
2018-05-18T03:34:16.555Z,0
2018-05-18T03:35:21.756Z,0
2018-05-18T03:36:27.311Z,0
2018-05-18T03:37:32.753Z,0
2018-05-18T03:38:37.898Z,0
2018-05-18T03:39:43.748Z,0
2018-05-18T03:40:48.622Z,0
2018-05-18T03:41:53.497Z,0
2018-05-18T03:42:58.937Z,0
2018-05-18T03:44:03.530Z,0
2018-05-18T03:45:08.397Z,0
2018-05-18T03:46:14.109Z,0
2018-05-18T03:47:19.265Z,0
2018-05-18T03:49:44.674Z,0
2018-05-18T03:50:50.111Z,0
2018-05-18T03:51:55.945Z,0
2018-05-18T03:53:00.818Z,0
2018-05-18T03:54:05.700Z,0
2018-05-18T03:55:10.937Z,0
2018-05-18T03:56:15.802Z,0
2018-05-18T03:57:20.960Z,0
2018-05-18T03:58:41.298Z,0
2018-05-18T03:59:46.453Z,0
2018-05-18T04:00:51.909Z,0
2018-05-18T04:01:57.084Z,0
2018-05-18T04:03:02.238Z,0
2018-05-18T04:04:07.552Z,0
2018-05-18T04:05:12.694Z,0
2018-05-18T04:06:17.859Z,0
2018-05-18T04:07:23.559Z,0
2018-05-18T04:12:01.309Z,0
2018-05-18T04:13:06.287Z,0
2018-05-18T04:14:11.727Z,0
2018-05-18T04:15:16.307Z,0
2018-05-18T04:16:21.770Z,0
2018-05-18T04:17:26.927Z,0
2018-05-18T04:18:32.610Z,0
2018-05-18T04:19:38.059Z,0
2018-05-18T04:20:43.213Z,0
2018-05-18T04:21:49.212Z,0
2018-05-18T04:22:54.356Z,0
2018-05-18T04:23:59.517Z,0
2018-05-18T04:25:05.061Z,0
2018-05-18T04:26:10.494Z,0
2018-05-18T04:27:15.924Z,0
2018-05-18T04:28:21.655Z,0
2018-05-18T04:29:26.839Z,0
2018-05-18T04:30:32.560Z,0
2018-05-18T04:31:38.106Z,0
2018-05-18T04:32:42.705Z,0
2018-05-18T04:33:48.248Z,0
2018-05-18T04:34:53.694Z,0
2018-05-18T04:35:58.849Z,0
2018-05-18T04:37:04.580Z,0
2018-05-18T04:38:08.889Z,0
2018-05-18T04:39:14.035Z,0
2018-05-18T04:40:19.478Z,0
2018-05-18T04:41:24.626Z,0
2018-05-18T04:42:30.224Z,0
2018-05-18T04:43:35.715Z,0
2018-05-18T04:44:40.967Z,0
2018-05-18T04:45:46.469Z,0
2018-05-18T04:46:51.612Z,0
2018-05-18T04:47:57.068Z,0
2018-05-18T04:49:02.749Z,0
2018-05-18T04:50:08.180Z,0
2018-05-18T04:51:13.612Z,0
2018-05-18T04:52:19.086Z,0
2018-05-18T04:53:23.675Z,0
2018-05-18T04:54:29.135Z,0
2018-05-18T04:55:34.574Z,0
2018-05-18T04:56:40.074Z,0
2018-05-18T04:57:44.912Z,0
2018-05-18T04:58:50.201Z,0
2018-05-18T04:59:55.548Z,0
2018-05-18T05:01:00.997Z,0
2018-05-18T05:02:05.862Z,0
2018-05-18T05:03:10.744Z,0
2018-05-18T05:04:16.203Z,0
2018-05-18T05:05:21.706Z,0
2018-05-18T05:06:27.081Z,0
2018-05-18T05:07:32.280Z,0
2018-05-18T05:08:37.709Z,0
2018-05-18T05:09:42.623Z,0
2018-05-18T05:10:47.846Z,0
2018-05-18T05:11:52.996Z,0
2018-05-18T05:12:58.839Z,0
2018-05-18T05:14:04.272Z,0
2018-05-18T05:15:09.127Z,0
2018-05-18T05:16:14.464Z,0
2018-05-18T05:17:19.386Z,0
2018-05-18T05:18:24.819Z,0
2018-05-18T05:19:30.908Z,0
2018-05-18T05:20:35.810Z,0
2018-05-18T05:21:40.698Z,0
2018-05-18T05:22:45.575Z,0
2018-05-18T05:23:50.455Z,0
2018-05-18T05:24:55.730Z,0
2018-05-18T05:26:00.908Z,0
2018-05-18T05:27:05.814Z,0
2018-05-18T05:28:11.229Z,0
2018-05-18T05:29:16.667Z,0
2018-05-18T05:30:21.840Z,0
2018-05-18T05:31:28.084Z,0
2018-05-18T05:32:32.951Z,0
2018-05-18T05:33:38.693Z,0
2018-05-18T05:34:43.838Z,0
2018-05-18T05:35:49.275Z,6
2018-05-18T05:36:54.171Z,6
2018-05-18T05:37:59.597Z,6
2018-05-18T05:39:04.489Z,6
2018-05-18T05:40:09.987Z,6
2018-05-18T05:41:15.151Z,6
2018-05-18T05:42:20.303Z,6
2018-05-18T05:43:26.087Z,6
2018-05-18T05:44:31.532Z,6
2018-05-18T05:45:37.275Z,6
2018-05-18T05:46:42.721Z,6
2018-05-18T05:47:47.605Z,6
2018-05-18T05:48:53.301Z,6
2018-05-18T05:49:58.449Z,6
2018-05-18T05:51:03.883Z,6
2018-05-18T05:52:09.644Z,6
2018-05-18T05:53:15.074Z,6
2018-05-18T05:54:20.250Z,6
2018-05-18T05:55:26.244Z,6
2018-05-18T05:56:31.393Z,6
2018-05-18T05:57:37.091Z,6
2018-05-18T05:58:42.520Z,6
2018-05-18T05:59:47.675Z,6
2018-05-18T06:00:52.907Z,6
2018-05-18T06:01:58.333Z,6
2018-05-18T06:03:02.357Z,6
2018-05-18T06:04:07.463Z,6
2018-05-18T06:05:12.960Z,24
2018-05-18T06:06:18.164Z,24
2018-05-18T06:07:23.270Z,24
2018-05-18T06:08:28.428Z,24
2018-05-18T06:09:34.158Z,24
2018-05-18T06:10:39.306Z,24
2018-05-18T06:11:44.459Z,252
2018-05-18T06:12:49.934Z,267
2018-05-18T06:13:55.384Z,267
2018-05-18T06:15:00.828Z,283
2018-05-18T06:16:05.489Z,252
2018-05-18T06:17:10.438Z,283
2018-05-18T06:18:15.868Z,283
2018-05-18T06:19:21.030Z,283
2018-05-18T06:20:25.900Z,283
2018-05-18T06:21:31.782Z,283
2018-05-18T06:22:37.215Z,283
2018-05-18T06:23:42.108Z,283
2018-05-18T06:24:47.385Z,267
2018-05-18T06:25:52.531Z,267
2018-05-18T06:26:57.989Z,283
2018-05-18T06:28:02.923Z,283
2018-05-18T06:29:08.093Z,283
2018-05-18T06:30:13.297Z,267
2018-05-18T06:31:19.085Z,252
2018-05-18T06:32:24.542Z,237
2018-05-18T06:33:30.324Z,252
2018-05-18T06:34:35.608Z,252
2018-05-18T06:35:40.598Z,283
2018-05-18T06:36:46.055Z,283
2018-05-18T06:37:51.492Z,283
2018-05-18T06:38:56.672Z,262
2018-05-18T06:40:01.849Z,262
2018-05-18T06:41:06.487Z,262
2018-05-18T06:42:11.710Z,267
2018-05-18T06:43:17.451Z,247
2018-05-18T06:44:22.883Z,267
2018-05-18T06:45:28.326Z,267
2018-05-18T06:46:33.526Z,262
2018-05-18T06:47:38.963Z,277
2018-05-18T06:48:44.353Z,277
2018-05-18T06:49:49.240Z,247
2018-05-18T06:50:54.692Z,308
2018-05-18T06:51:59.578Z,308
2018-05-18T06:53:04.596Z,277
2018-05-18T06:54:09.771Z,262
2018-05-18T06:55:15.529Z,283
2018-05-18T06:56:20.411Z,267
2018-05-18T06:57:26.418Z,277
2018-05-18T06:58:31.865Z,277
2018-05-18T06:59:37.295Z,277
2018-05-18T07:00:43.036Z,277
2018-05-18T07:01:48.490Z,277
2018-05-18T07:02:53.921Z,292
2018-05-18T07:03:59.252Z,277
2018-05-18T07:05:04.270Z,277
2018-05-18T07:06:09.413Z,277
2018-05-18T07:07:15.250Z,277
2018-05-18T07:08:20.136Z,277
2018-05-18T07:09:26.224Z,277
2018-05-18T07:10:31.848Z,277
2018-05-18T07:11:37.416Z,277
2018-05-18T07:12:42.968Z,277
2018-05-18T07:13:48.111Z,277
2018-05-18T07:14:53.266Z,277
2018-05-18T07:15:58.668Z,277
2018-05-18T07:17:03.250Z,277
2018-05-18T07:18:08.127Z,277
2018-05-18T07:19:13.046Z,267
2018-05-18T07:20:17.912Z,267
2018-05-18T07:21:23.070Z,277
2018-05-18T07:22:28.670Z,277
2018-05-18T07:23:33.827Z,277
2018-05-18T07:24:38.709Z,277
2018-05-18T07:25:43.877Z,277
2018-05-18T07:26:49.065Z,277
2018-05-18T07:27:54.477Z,277
2018-05-18T07:28:59.062Z,262
2018-05-18T07:30:04.423Z,252
2018-05-18T07:31:10.105Z,277
2018-05-18T07:32:14.974Z,277
2018-05-18T07:33:19.565Z,277
2018-05-18T07:34:25.000Z,237
2018-05-18T07:35:29.891Z,262
2018-05-18T07:36:36.049Z,277
2018-05-18T07:37:41.489Z,277
2018-05-18T07:38:46.920Z,247
2018-05-18T07:39:52.424Z,277
2018-05-18T07:40:57.291Z,277
2018-05-18T07:42:02.942Z,262
2018-05-18T07:43:08.204Z,247
2018-05-18T07:44:13.627Z,262
2018-05-18T07:45:18.799Z,262
2018-05-18T07:46:24.373Z,247
2018-05-18T07:47:29.528Z,262
2018-05-18T07:48:35.288Z,262
2018-05-18T07:49:40.457Z,262
2018-05-18T07:50:45.944Z,277
2018-05-18T07:51:51.499Z,277
2018-05-18T07:52:56.651Z,277
2018-05-18T07:54:01.768Z,277
2018-05-18T07:55:07.038Z,277
2018-05-18T07:56:12.469Z,262
2018-05-18T07:57:17.618Z,277
2018-05-18T07:58:22.880Z,232
2018-05-18T07:59:27.787Z,262
2018-05-18T08:00:33.499Z,262
2018-05-18T08:01:38.443Z,262
2018-05-18T08:02:43.877Z,292
2018-05-18T08:03:49.724Z,262
2018-05-18T08:04:54.599Z,277
2018-05-18T08:06:00.037Z,277
2018-05-18T08:07:04.993Z,277
2018-05-18T08:08:10.168Z,277
2018-05-18T08:09:15.583Z,262
2018-05-18T08:10:20.992Z,262
2018-05-18T08:11:26.139Z,292
2018-05-18T08:12:31.824Z,277
2018-05-18T08:13:37.331Z,292
2018-05-18T08:14:42.489Z,292
2018-05-18T08:15:48.221Z,292
2018-05-18T08:16:53.096Z,277
2018-05-18T08:17:58.534Z,292
2018-05-18T08:19:03.516Z,292
2018-05-18T08:20:08.661Z,292
2018-05-18T08:21:14.097Z,277
2018-05-18T08:22:19.410Z,277
2018-05-18T08:23:24.901Z,308
2018-05-18T08:24:30.739Z,292
2018-05-18T08:25:36.178Z,277
2018-05-18T08:26:41.343Z,287
2018-05-18T08:27:47.573Z,287
2018-05-18T08:28:52.936Z,317
2018-05-18T08:29:57.517Z,317
2018-05-18T08:31:02.417Z,317
2018-05-18T08:32:06.726Z,302
2018-05-18T08:33:11.893Z,317
2018-05-18T08:34:17.070Z,317
2018-05-18T08:35:21.941Z,317
2018-05-18T08:36:27.926Z,327
2018-05-18T08:37:33.072Z,302
2018-05-18T08:38:38.483Z,317
2018-05-18T08:39:43.906Z,327
2018-05-18T08:40:49.076Z,317
2018-05-18T08:41:54.231Z,312
2018-05-18T08:42:59.255Z,312
2018-05-18T08:44:03.838Z,327
2018-05-18T08:45:08.998Z,327
2018-05-18T08:46:14.301Z,342
2018-05-18T08:47:19.755Z,297
2018-05-18T08:48:26.053Z,287
2018-05-18T08:49:31.220Z,342
2018-05-18T08:50:36.658Z,327
2018-05-18T08:51:42.353Z,342
2018-05-18T08:52:47.233Z,337
2018-05-18T08:53:51.827Z,337
2018-05-18T08:54:56.666Z,322
2018-05-18T08:56:01.829Z,337
2018-05-18T08:57:06.420Z,352
2018-05-18T08:58:12.217Z,337
2018-05-18T08:59:17.393Z,352
2018-05-18T09:00:22.268Z,352
2018-05-18T09:01:28.164Z,312
2018-05-18T09:02:33.319Z,333
2018-05-18T09:03:38.791Z,312
2018-05-18T09:04:43.668Z,352
2018-05-18T09:05:47.981Z,337
2018-05-18T09:06:53.175Z,337
2018-05-18T09:07:58.639Z,327
2018-05-18T09:09:03.815Z,337
2018-05-18T09:10:09.371Z,358
2018-05-18T09:11:14.531Z,302
2018-05-18T09:12:19.684Z,352
2018-05-18T09:13:24.097Z,358
2018-05-18T09:14:28.980Z,337
2018-05-18T09:15:34.825Z,337
2018-05-18T09:16:39.988Z,352
2018-05-18T09:17:45.564Z,337
2018-05-18T09:18:51.401Z,352
2018-05-18T09:19:56.262Z,322
2018-05-18T09:21:01.138Z,337
2018-05-18T09:22:06.041Z,337
2018-05-18T09:23:11.196Z,337
2018-05-18T09:24:16.076Z,337
2018-05-18T09:25:21.814Z,337
2018-05-18T09:26:27.135Z,337
2018-05-18T09:27:33.176Z,337
2018-05-18T09:28:38.647Z,352
2018-05-18T09:29:43.802Z,327
2018-05-18T09:30:49.004Z,322
2018-05-18T09:31:54.439Z,352
2018-05-18T09:32:59.878Z,352
2018-05-18T09:34:05.799Z,352
2018-05-18T09:35:10.647Z,367
2018-05-18T09:36:15.249Z,327
2018-05-18T09:37:20.977Z,352
2018-05-18T09:38:26.132Z,352
2018-05-18T09:39:32.071Z,367
2018-05-18T09:40:36.662Z,352
2018-05-18T09:41:40.972Z,352
2018-05-18T09:42:46.756Z,367
2018-05-18T09:43:51.923Z,367
2018-05-18T09:44:57.357Z,367
2018-05-18T09:46:02.508Z,367
2018-05-18T09:47:07.016Z,352
2018-05-18T09:48:12.194Z,352
2018-05-18T09:49:17.791Z,367
2018-05-18T09:50:23.222Z,362
2018-05-18T09:51:27.934Z,392
2018-05-18T09:52:33.092Z,370
2018-05-18T09:53:38.592Z,392
2018-05-18T09:54:44.925Z,362
2018-05-18T09:55:51.186Z,377
2018-05-18T09:56:56.054Z,392
2018-05-18T09:58:01.746Z,392
2018-05-18T09:59:05.783Z,392
2018-05-18T10:00:10.942Z,377
2018-05-18T10:01:16.465Z,370
2018-05-18T10:02:21.335Z,386
2018-05-18T10:03:27.031Z,392
2018-05-18T10:04:31.890Z,377
2018-05-18T10:05:36.764Z,362
2018-05-18T10:06:41.894Z,362
2018-05-18T10:07:47.049Z,392
2018-05-18T10:08:52.524Z,377
2018-05-18T10:09:58.038Z,362
2018-05-18T10:11:02.897Z,377
2018-05-18T10:12:07.474Z,346
2018-05-18T10:13:12.606Z,377
2018-05-18T10:14:17.765Z,377
2018-05-18T10:15:23.213Z,367
2018-05-18T10:16:29.099Z,377
2018-05-18T10:17:34.549Z,386
2018-05-18T10:18:40.140Z,370
2018-05-18T10:19:45.315Z,362
2018-05-18T10:20:50.107Z,370
2018-05-18T10:21:55.687Z,402
2018-05-18T10:23:01.049Z,386
2018-05-18T10:24:05.940Z,370
2018-05-18T10:25:10.798Z,402
2018-05-18T10:26:15.693Z,427
2018-05-18T10:27:21.443Z,394
2018-05-18T10:28:26.938Z,394
2018-05-18T10:29:32.096Z,417
2018-05-18T10:30:37.798Z,386
2018-05-18T10:31:42.959Z,367
2018-05-18T10:32:48.526Z,402
2018-05-18T10:33:54.336Z,386
2018-05-18T10:34:59.212Z,370
2018-05-18T10:36:04.114Z,377
2018-05-18T10:37:09.231Z,392
2018-05-18T10:38:14.386Z,402
2018-05-18T10:39:19.681Z,402
2018-05-18T10:40:34.300Z,474
2018-05-18T10:41:38.897Z,458
2018-05-18T10:42:44.678Z,467
2018-05-18T10:43:49.551Z,377
2018-05-18T10:44:54.989Z,401
2018-05-18T10:45:59.887Z,507
2018-05-18T10:47:05.038Z,482
2018-05-18T10:48:10.494Z,498
2018-05-18T10:49:15.964Z,641
2018-05-18T10:50:21.461Z,506
2018-05-18T10:51:27.033Z,498
2018-05-18T10:52:32.467Z,498
2018-05-18T10:53:37.948Z,491
2018-05-18T10:54:43.630Z,507
2018-05-18T10:55:49.065Z,474
2018-05-18T10:56:53.653Z,491
2018-05-18T10:57:59.334Z,507
2018-05-18T10:59:04.509Z,498
2018-05-18T11:00:09.159Z,617
2018-05-18T11:01:14.662Z,720
2018-05-18T11:02:19.540Z,696
2018-05-18T11:03:24.342Z,672
2018-05-18T11:04:30.226Z,722
2018-05-18T11:05:35.088Z,689
2018-05-18T11:06:40.555Z,696
2018-05-18T11:07:46.190Z,729
2018-05-18T11:08:51.624Z,713
2018-05-18T11:09:57.504Z,555
2018-05-18T11:11:02.096Z,713
2018-05-18T11:12:07.037Z,744
2018-05-18T11:13:12.829Z,531
2018-05-18T11:14:18.727Z,555
2018-05-18T11:15:24.097Z,531
2018-05-18T11:16:44.199Z,522
2018-05-18T11:17:49.361Z,658
2018-05-18T11:18:55.101Z,744
2018-05-18T11:20:00.580Z,696
2018-05-18T11:21:05.955Z,570
2018-05-18T11:22:11.175Z,531
2018-05-18T11:23:16.073Z,522
2018-05-18T11:24:21.216Z,555
2018-05-18T11:25:41.089Z,555
2018-05-18T11:26:46.245Z,538
2018-05-18T11:27:51.433Z,562
2018-05-18T11:28:56.883Z,570
2018-05-18T11:30:01.750Z,681
2018-05-18T11:31:06.934Z,601
2018-05-18T11:32:12.092Z,784
2018-05-18T11:33:17.790Z,665
2018-05-18T11:34:23.247Z,570
2018-05-18T11:35:28.121Z,570
2018-05-18T11:36:33.837Z,562
2018-05-18T11:37:39.203Z,579
2018-05-18T11:38:43.494Z,586
2018-05-18T11:39:49.040Z,737
2018-05-18T11:40:53.960Z,531
2018-05-18T11:41:59.393Z,515
2018-05-18T11:43:04.850Z,522
2018-05-18T11:44:09.435Z,531
2018-05-18T11:45:14.605Z,515
2018-05-18T11:46:20.414Z,515
2018-05-18T11:47:24.903Z,531
2018-05-18T11:48:30.035Z,522
2018-05-18T11:49:34.901Z,753
2018-05-18T11:50:39.785Z,595
2018-05-18T11:51:45.192Z,650
2018-05-18T11:52:50.633Z,691
2018-05-18T11:53:56.073Z,546
2018-05-18T11:55:01.839Z,498
2018-05-18T11:56:06.987Z,729
2018-05-18T11:57:12.132Z,689
2018-05-18T11:58:17.888Z,522
2018-05-18T11:59:23.327Z,498
2018-05-18T12:00:28.237Z,617
2018-05-18T12:01:33.409Z,696
2018-05-18T12:02:38.858Z,689
2018-05-18T12:03:43.987Z,610
2018-05-18T12:04:49.547Z,507
2018-05-18T12:05:55.130Z,705
2018-05-18T12:07:00.539Z,498
2018-05-18T12:08:05.133Z,483
2018-05-18T12:09:10.267Z,513
2018-05-18T12:10:15.716Z,579
2018-05-18T12:11:21.165Z,498
2018-05-18T12:12:27.259Z,538
2018-05-18T12:13:32.412Z,698
2018-05-18T12:14:37.287Z,691
2018-05-18T12:15:42.916Z,674
2018-05-18T12:16:47.851Z,674
2018-05-18T12:17:52.753Z,641
2018-05-18T12:18:58.590Z,658
2018-05-18T12:20:03.756Z,641
2018-05-18T12:21:08.663Z,641
2018-05-18T12:22:14.326Z,667
2018-05-18T12:23:19.486Z,667
2018-05-18T12:24:24.637Z,634
2018-05-18T12:25:29.526Z,634
2018-05-18T12:26:34.680Z,634
2018-05-18T12:27:39.565Z,617
2018-05-18T12:28:44.725Z,650
2018-05-18T12:29:49.881Z,617
2018-05-18T12:30:55.119Z,667
2018-05-18T12:32:00.264Z,643
2018-05-18T12:33:05.444Z,488
2018-05-18T12:34:10.591Z,458
2018-05-18T12:35:15.950Z,458
2018-05-18T12:36:21.312Z,650
2018-05-18T12:37:26.630Z,491
2018-05-18T12:38:31.506Z,691
2018-05-18T12:39:37.081Z,473
2018-05-18T12:40:42.511Z,473
2018-05-18T12:41:47.670Z,498
2018-05-18T12:42:52.906Z,473
2018-05-18T12:43:57.772Z,507
2018-05-18T12:45:02.937Z,473
2018-05-18T12:46:07.498Z,473
2018-05-18T12:47:12.363Z,674
2018-05-18T12:48:17.793Z,674
2018-05-18T12:49:22.918Z,650
2018-05-18T12:50:28.094Z,650
2018-05-18T12:51:33.544Z,650
2018-05-18T12:52:38.697Z,634
2018-05-18T12:53:44.213Z,626
2018-05-18T12:54:49.672Z,643
2018-05-18T12:55:55.098Z,643
2018-05-18T12:57:00.541Z,634
2018-05-18T12:58:06.230Z,643
2018-05-18T12:59:11.113Z,610
2018-05-18T13:00:15.703Z,610
2018-05-18T13:01:21.446Z,626
2018-05-18T13:02:26.320Z,626
2018-05-18T13:03:31.511Z,643
2018-05-18T13:04:36.655Z,297
2018-05-18T13:05:41.826Z,304
2018-05-18T13:06:47.270Z,288
2018-05-18T13:07:52.419Z,304
2018-05-18T13:08:57.288Z,400
2018-05-18T13:10:02.549Z,359
2018-05-18T13:11:07.712Z,374
2018-05-18T13:12:12.585Z,414
2018-05-18T13:13:18.321Z,423
2018-05-18T13:14:23.754Z,447
2018-05-18T13:15:29.227Z,431
2018-05-18T13:16:34.257Z,264
2018-05-18T13:17:39.138Z,288
2018-05-18T13:18:44.582Z,352
2018-05-18T13:19:49.170Z,367
2018-05-18T13:20:54.618Z,224
2018-05-18T13:22:00.503Z,216
2018-05-18T13:23:05.364Z,249
2018-05-18T13:24:10.563Z,376
2018-05-18T13:25:15.956Z,343
2018-05-18T13:26:21.150Z,328
2018-05-18T13:27:41.500Z,344
2018-05-18T13:28:46.645Z,343
2018-05-18T13:29:51.816Z,359
2018-05-18T13:30:57.554Z,344
2018-05-18T13:32:02.160Z,328
2018-05-18T13:33:06.756Z,344
2018-05-18T13:34:12.450Z,335
2018-05-18T13:35:17.910Z,304
2018-05-18T13:36:22.840Z,328
2018-05-18T13:37:28.410Z,312
2018-05-18T13:38:33.923Z,225
2018-05-18T13:39:39.387Z,209
2018-05-18T13:40:44.271Z,264
2018-05-18T13:41:49.431Z,271
2018-05-18T13:42:55.111Z,295
2018-05-18T13:44:00.254Z,304
2018-05-18T13:45:05.993Z,304
2018-05-18T13:46:11.870Z,312
2018-05-18T13:47:16.754Z,295
2018-05-18T13:48:22.186Z,295
2018-05-18T13:49:27.214Z,328
2018-05-18T13:50:32.361Z,319
2018-05-18T13:51:38.319Z,335
2018-05-18T13:52:43.649Z,352
2018-05-18T13:53:48.808Z,335
2018-05-18T13:54:54.496Z,343
2018-05-18T13:55:59.930Z,343
2018-05-18T13:57:04.949Z,249
2018-05-18T13:58:10.352Z,343
2018-05-18T13:59:15.495Z,273
2018-05-18T14:00:20.657Z,249
2018-05-18T14:01:26.053Z,295
2018-05-18T14:02:30.984Z,264
2018-05-18T14:03:36.199Z,304
2018-05-18T14:04:41.643Z,319
2018-05-18T14:05:46.235Z,264
2018-05-18T14:06:51.648Z,273
2018-05-18T14:07:57.084Z,288
2018-05-18T14:09:02.254Z,297
2018-05-18T14:10:07.175Z,319
2018-05-18T14:11:12.055Z,343
2018-05-18T14:12:17.199Z,367
2018-05-18T14:13:22.983Z,295
2018-05-18T14:14:28.417Z,240
2018-05-18T14:15:33.691Z,249
2018-05-18T14:16:39.129Z,271
2018-05-18T14:17:44.333Z,304
2018-05-18T14:18:50.160Z,264
2018-05-18T14:19:55.605Z,304
2018-05-18T14:21:01.031Z,335
2018-05-18T14:22:06.411Z,273
2018-05-18T14:23:11.865Z,288
2018-05-18T14:24:17.294Z,335
2018-05-18T14:25:22.434Z,335
2018-05-18T14:26:28.303Z,352
2018-05-18T14:27:34.518Z,343
2018-05-18T14:28:39.917Z,359
2018-05-18T14:29:44.832Z,367
2018-05-18T14:30:49.937Z,343
2018-05-18T14:31:55.977Z,326
2018-05-18T14:33:01.513Z,335
2018-05-18T14:34:06.804Z,304
2018-05-18T14:35:12.237Z,328
2018-05-18T14:36:17.113Z,352
2018-05-18T14:37:22.512Z,350
2018-05-18T14:38:27.948Z,376
2018-05-18T14:39:33.067Z,295
2018-05-18T14:40:37.944Z,280
2018-05-18T14:41:43.398Z,257
2018-05-18T14:42:48.804Z,257
2018-05-18T14:43:54.252Z,264
2018-05-18T14:44:59.142Z,257
2018-05-18T14:46:04.549Z,319
2018-05-18T14:47:09.720Z,273
2018-05-18T14:48:14.591Z,297
2018-05-18T14:49:20.085Z,350
2018-05-18T14:50:25.242Z,367
2018-05-18T14:51:30.786Z,367
2018-05-18T14:52:35.938Z,359
2018-05-18T14:53:41.084Z,400
2018-05-18T14:54:46.075Z,400
2018-05-18T14:55:50.387Z,383
2018-05-18T14:56:55.819Z,376
2018-05-18T14:58:01.278Z,319
2018-05-18T14:59:05.861Z,352
2018-05-18T15:00:11.568Z,350
2018-05-18T15:01:16.997Z,343
2018-05-18T15:02:21.874Z,350
2018-05-18T15:03:27.006Z,359
2018-05-18T15:04:32.189Z,367
2018-05-18T15:05:36.823Z,390
2018-05-18T15:06:42.546Z,343
2018-05-18T15:07:48.000Z,376
2018-05-18T15:08:52.859Z,414
2018-05-18T15:09:57.847Z,376
2018-05-18T15:11:03.093Z,400
2018-05-18T15:12:07.706Z,392
2018-05-18T15:13:12.893Z,455
2018-05-18T15:14:18.340Z,471
2018-05-18T15:15:23.764Z,446
2018-05-18T15:16:44.143Z,446
2018-05-18T15:17:49.308Z,455
2018-05-18T15:18:55.001Z,455
2018-05-18T15:20:00.165Z,446
2018-05-18T15:21:05.026Z,478
2018-05-18T15:22:09.931Z,438
2018-05-18T15:23:14.811Z,446
2018-05-18T15:24:20.242Z,414
2018-05-18T15:25:25.651Z,462
2018-05-18T15:26:30.512Z,423
2018-05-18T15:27:35.636Z,414
2018-05-18T15:28:41.191Z,462
2018-05-18T15:29:46.572Z,455
2018-05-18T15:30:51.672Z,446